Time;durP1;ratioP1;P1;durP2;ratioP2;P2;SDS_P1;SDS_P2;PMS_P1;PMS_P2;Temp;Humidity;BMP_temperature;BMP_pressure;BME280_temperature;BME280_humidity;BME280_pressure;Samples;Min_cycle;Max_cycle;Signal;HPM_P1;HPM_P2
2022/05/02 00:02:25;;;;;;;;;12.00;12.00;;;;;;;;5038085;28;48215;-85
2022/05/02 00:05:10;;;;;;;;;;;;;;;;;;;;;
2022/05/02 00:08:09;;;;;;;;;14.00;14.00;;;;;;;;5057103;28;67209;-86
2022/05/02 00:10:36;;;;;;;;;17.00;15.00;;;;;;;;5043872;28;45561;-87
2022/05/02 00:13:06;;;;;;;;;15.00;14.00;;;;;;;;5042821;28;45305;-80
2022/05/02 00:18:24;;;;;;;;;17.67;15.33;;;;;;;;5047629;28;45373;-83
2022/05/02 00:20:55;;;;;;;;;14.00;14.00;;;;;;;;5037156;28;46033;-86
2022/05/02 00:23:29;;;;;;;;;11.33;11.33;;;;;;;;5043912;28;45806;-85
2022/05/02 00:26:01;;;;;;;;;12.00;11.00;;;;;;;;5043080;28;44758;-84
2022/05/02 00:28:27;;;;;;;;;15.67;15.00;;;;;;;;5026127;28;45860;-85
2022/05/02 00:31:04;;;;;;;;;;;;;;;;;;;;;
2022/05/02 00:33:32;;;;;;;;;17.00;13.67;;;;;;;;5038632;28;75607;-82
2022/05/02 00:36:00;;;;;;;;;17.33;15.33;;;;;;;;5040302;28;45918;-81
2022/05/02 00:38:30;;;;;;;;;14.00;12.33;;;;;;;;5042899;28;45459;-81
2022/05/02 00:40:59;;;;;;;;;14.67;14.67;;;;;;;;5034797;28;46133;-85
2022/05/02 00:43:34;;;;;;;;;16.33;13.67;;;;;;;;5057308;28;46900;-82
2022/05/02 00:46:02;;;;;;;;;13.00;13.00;;;;;;;;5050834;28;45447;-84
2022/05/02 00:48:49;;;;;;;;;16.00;15.33;;;;;;;;5068198;28;44808;-85
2022/05/02 00:51:15;;;;;;;;;15.00;15.00;;;;;;;;5048043;28;45668;-86
2022/05/02 00:53:41;;;;;;;;;15.00;12.67;;;;;;;;5047596;28;45661;-86
2022/05/02 00:56:10;;;;;;;;;17.67;16.00;;;;;;;;5049873;28;45527;-86
2022/05/02 00:58:39;;;;;;;;;16.67;16.00;;;;;;;;5065650;28;45589;-84
2022/05/02 01:01:06;;;;;;;;;22.00;18.67;;;;;;;;5042783;28;45913;-83
2022/05/02 01:03:33;;;;;;;;;16.00;16.00;;;;;;;;5046187;28;47424;-85
2022/05/02 01:08:53;;;;;;;;;17.33;15.67;;;;;;;;5063617;28;45522;-83
2022/05/02 01:12:00;;;;;;;;;18.00;16.67;;;;;;;;5045224;28;45851;-84
2022/05/02 01:14:28;;;;;;;;;18.33;18.33;;;;;;;;5064408;28;46089;-86
2022/05/02 01:17:02;;;;;;;;;18.33;14.67;;;;;;;;5042192;28;45433;-86
2022/05/02 01:19:32;;;;;;;;;20.67;18.33;;;;;;;;5042345;28;45384;-82
2022/05/02 01:22:01;;;;;;;;;15.67;14.67;;;;;;;;5063527;28;45533;-85
2022/05/02 01:24:36;;;;;;;;;15.33;15.33;;;;;;;;5041700;28;45128;-83
2022/05/02 01:27:02;;;;;;;;;13.67;13.67;;;;;;;;5035080;28;45373;-84
2022/05/02 01:29:40;;;;;;;;;18.00;14.00;;;;;;;;5041149;28;45395;-83
2022/05/02 01:32:20;;;;;;;;;17.33;17.00;;;;;;;;5054772;28;45123;-82
2022/05/02 01:35:19;;;;;;;;;19.00;15.00;;;;;;;;5054504;28;46798;-85
2022/05/02 01:38:04;;;;;;;;;20.33;18.00;;;;;;;;5076519;28;44727;-84
2022/05/02 01:40:32;;;;;;;;;19.33;17.33;;;;;;;;5063027;28;44710;-82
2022/05/02 01:43:03;;;;;;;;;20.00;18.00;;;;;;;;5074384;28;45379;-84
2022/05/02 01:45:48;;;;;;;;;18.00;16.00;;;;;;;;5073683;28;45234;-82
2022/05/02 01:48:17;;;;;;;;;21.00;18.33;;;;;;;;5075040;28;44861;-82
2022/05/02 01:50:42;;;;;;;;;19.33;17.33;;;;;;;;5056610;28;45465;-82
2022/05/02 01:53:34;;;;;;;;;21.67;21.00;;;;;;;;5055480;28;44862;-83
2022/05/02 01:56:07;;;;;;;;;20.67;18.00;;;;;;;;5058118;28;47334;-83
2022/05/02 01:58:44;;;;;;;;;19.67;16.67;;;;;;;;5059201;28;45276;-83
2022/05/02 02:01:32;;;;;;;;;20.00;20.00;;;;;;;;5073193;28;45465;-85
2022/05/02 02:05:48;;;;;;;;;17.33;17.00;;;;;;;;5057936;28;44842;-83
2022/05/02 02:06:52;;;;;;;;;33.00;27.00;;;;;;;;5076195;28;45270;-81
2022/05/02 02:09:18;;;;;;;;;26.33;23.00;;;;;;;;5068057;28;44893;-80
2022/05/02 02:11:47;;;;;;;;;21.67;21.00;;;;;;;;5052620;28;45340;-84
2022/05/02 02:14:25;;;;;;;;;20.00;18.33;;;;;;;;5053331;28;45355;-82
2022/05/02 02:17:14;;;;;;;;;18.33;18.33;;;;;;;;5048240;28;47246;-81
2022/05/02 02:19:39;;;;;;;;;17.67;14.67;;;;;;;;5066230;28;45445;-81
2022/05/02 02:22:24;;;;;;;;;20.67;18.33;;;;;;;;5051998;28;45471;-83
2022/05/02 02:24:52;;;;;;;;;18.00;17.33;;;;;;;;5069079;28;45536;-83
2022/05/02 02:27:23;;;;;;;;;21.33;19.33;;;;;;;;5061838;28;46798;-84
2022/05/02 02:30:03;;;;;;;;;25.67;23.00;;;;;;;;5078100;28;44844;-82
2022/05/02 02:32:36;;;;;;;;;24.33;23.00;;;;;;;;5071946;28;45591;-85
2022/05/02 02:35:07;;;;;;;;;32.00;27.00;;;;;;;;5067209;28;45826;-83
2022/05/02 02:37:36;;;;;;;;;26.00;23.00;;;;;;;;5045567;28;46612;-83
2022/05/02 02:40:11;;;;;;;;;22.33;22.33;;;;;;;;5042626;28;45360;-82
2022/05/02 02:42:49;;;;;;;;;24.00;22.00;;;;;;;;5043059;28;45447;-82
2022/05/02 02:45:18;;;;;;;;;26.67;24.67;;;;;;;;5047648;28;44858;-84
2022/05/02 02:47:52;;;;;;;;;25.33;22.00;;;;;;;;5062409;28;45356;-82
2022/05/02 02:50:27;;;;;;;;;23.33;21.33;;;;;;;;5067203;28;45406;-85
2022/05/02 02:52:56;;;;;;;;;23.00;21.00;;;;;;;;5054749;28;45508;-83
2022/05/02 02:55:51;;;;;;;;;26.00;23.33;;;;;;;;5068035;28;45807;-86
2022/05/02 02:58:55;;;;;;;;;21.33;20.33;;;;;;;;5069044;28;45391;-82
2022/05/02 03:01:32;;;;;;;;;25.33;22.33;;;;;;;;5062052;28;45279;-82
2022/05/02 03:06:01;;;;;;;;;28.33;25.00;;;;;;;;5055641;28;45419;-85
2022/05/02 03:06:57;;;;;;;;;22.67;21.00;;;;;;;;5070890;28;45477;-82
2022/05/02 03:09:45;;;;;;;;;24.33;24.00;;;;;;;;5049196;28;46845;-84
2022/05/02 03:12:17;;;;;;;;;26.00;22.00;;;;;;;;5031407;28;45346;-83
2022/05/02 03:14:43;;;;;;;;;24.33;23.67;;;;;;;;5049609;28;45473;-85
2022/05/02 03:17:08;;;;;;;;;24.67;22.33;;;;;;;;5047912;28;45819;-85
2022/05/02 03:19:49;;;;;;;;;26.33;25.00;;;;;;;;5033638;28;46123;-81
2022/05/02 03:22:20;;;;;;;;;24.00;22.00;;;;;;;;5041596;28;45429;-82
2022/05/02 03:25:03;;;;;;;;;29.33;27.33;;;;;;;;5043147;28;45391;-82
2022/05/02 03:27:29;;;;;;;;;28.67;22.67;;;;;;;;5049168;28;45684;-85
2022/05/02 03:29:54;;;;;;;;;29.67;25.00;;;;;;;;5048417;28;46342;-83
2022/05/02 03:32:21;;;;;;;;;26.33;23.33;;;;;;;;5046952;28;45466;-81
2022/05/02 03:38:08;;;;;;;;;23.00;20.00;;;;;;;;5028060;28;45419;-84
2022/05/02 03:40:42;;;;;;;;;22.67;20.33;;;;;;;;5046968;28;46617;-83
2022/05/02 03:43:11;;;;;;;;;29.00;25.67;;;;;;;;5057058;28;45457;-83
2022/05/02 03:45:37;;;;;;;;;22.67;20.67;;;;;;;;5051429;28;45395;-83
2022/05/02 03:48:09;;;;;;;;;25.00;23.33;;;;;;;;5069043;28;45379;-83
2022/05/02 03:50:59;;;;;;;;;23.00;21.33;;;;;;;;5072749;28;45466;-84
2022/05/02 03:53:48;;;;;;;;;21.67;21.00;;;;;;;;5064219;28;45397;-85
2022/05/02 03:56:40;;;;;;;;;27.00;20.00;;;;;;;;5050727;28;45463;-83
2022/05/02 03:59:16;;;;;;;;;25.00;23.67;;;;;;;;5067736;28;45305;-83
2022/05/02 04:01:45;;;;;;;;;29.33;26.00;;;;;;;;5041373;28;47253;-81
2022/05/02 04:04:14;;;;;;;;;27.67;25.67;;;;;;;;5043039;28;45662;-84
2022/05/02 04:06:42;;;;;;;;;26.67;25.00;;;;;;;;5047080;28;45687;-85
2022/05/02 04:09:07;;;;;;;;;29.00;26.33;;;;;;;;5050281;28;47060;-83
2022/05/02 04:11:36;;;;;;;;;24.67;24.67;;;;;;;;5053030;28;47592;-80
2022/05/02 04:14:01;;;;;;;;;21.33;21.00;;;;;;;;5053759;28;45400;-78
2022/05/02 04:16:27;;;;;;;;;26.67;24.33;;;;;;;;5057537;28;45338;-80
2022/05/02 04:18:52;;;;;;;;;32.67;26.67;;;;;;;;5056858;28;45767;-83
2022/05/02 04:21:17;;;;;;;;;31.67;26.00;;;;;;;;5058553;28;45669;-76
2022/05/02 04:24:04;;;;;;;;;25.33;23.33;;;;;;;;5056414;28;45806;-86
2022/05/02 04:26:32;;;;;;;;;27.67;25.33;;;;;;;;5060474;28;45622;-83
2022/05/02 04:29:05;;;;;;;;;46.67;37.67;;;;;;;;5046053;28;46167;-86
2022/05/02 04:32:10;;;;;;;;;32.67;28.67;;;;;;;;5036480;28;46987;-88
2022/05/02 04:34:38;;;;;;;;;34.67;28.00;;;;;;;;5043620;28;45199;-86
2022/05/02 04:37:15;;;;;;;;;;;;;;;;;;;;;
2022/05/02 04:39:43;;;;;;;;;36.33;32.00;;;;;;;;5051333;28;73171;-85
2022/05/02 04:42:10;;;;;;;;;38.67;30.33;;;;;;;;5072864;28;47621;-85
2022/05/02 04:44:37;;;;;;;;;44.33;35.67;;;;;;;;5072533;28;45390;-86
2022/05/02 04:47:05;;;;;;;;;33.33;26.67;;;;;;;;5093997;27;44803;-85
2022/05/02 04:49:31;;;;;;;;;34.67;29.67;;;;;;;;5064764;28;45279;-83
2022/05/02 04:51:56;;;;;;;;;31.00;29.00;;;;;;;;5078882;28;46705;-82
2022/05/02 04:54:22;;;;;;;;;33.33;30.33;;;;;;;;5065066;28;45389;-81
2022/05/02 04:56:48;;;;;;;;;30.33;29.67;;;;;;;;5050532;28;45398;-81
2022/05/02 04:59:14;;;;;;;;;30.33;29.33;;;;;;;;5036959;28;45646;-82
2022/05/02 05:01:39;;;;;;;;;34.00;31.00;;;;;;;;5049408;28;45355;-79
2022/05/02 05:04:31;;;;;;;;;26.33;26.33;;;;;;;;5063284;28;45506;-82
2022/05/02 05:07:17;;;;;;;;;30.00;28.00;;;;;;;;5044617;28;45611;-84
2022/05/02 05:09:43;;;;;;;;;30.67;27.00;;;;;;;;5023972;28;45432;-80
2022/05/02 05:12:17;;;;;;;;;28.67;25.33;;;;;;;;5037367;28;45781;-82
2022/05/02 05:17:56;;;;;;;;;31.33;29.33;;;;;;;;5038500;28;45434;-80
2022/05/02 05:20:44;;;;;;;;;33.00;32.00;;;;;;;;5040147;28;45885;-83
2022/05/02 05:23:46;;;;;;;;;;;;;;;;;;;;;
2022/05/02 05:32:31;;;;;;;;;25.67;24.33;;;;;;;;5046316;28;45690;-80
2022/05/02 05:35:14;;;;;;;;;29.33;27.67;;;;;;;;5056979;28;45500;-84
2022/05/02 05:59:27;;;;;;;;;32.33;28.67;;;;;;;;4919365;28;45429;-81
2022/05/02 06:05:39;;;;;;;;;31.33;29.67;;;;;;;;4872739;29;45517;-85
2022/05/02 06:36:21;;;;;;;;;29.33;26.00;;;;;;;;4899191;28;46005;-80
2022/05/02 06:51:42;;;;;;;;;32.67;26.00;;;;;;;;4900971;29;45848;-84
2022/05/02 07:19:10;;;;;;;;;;;;;;;;;;;;;
2022/05/02 07:22:16;;;;;;;;;35.67;29.67;;;;;;;;4954597;28;73331;-85
2022/05/02 07:26:06;;;;;;;;;28.67;27.67;;;;;;;;4972708;28;45475;-84
2022/05/02 07:28:29;;;;;;;;;28.00;26.67;;;;;;;;4946560;28;45717;-86
2022/05/02 07:38:18;;;;;;;;;32.00;26.00;;;;;;;;4983285;28;45440;-86
2022/05/02 07:41:32;;;;;;;;;26.67;24.33;;;;;;;;4879579;29;45468;-81
2022/05/02 08:15:07;;;;;;;;;32.67;31.33;;;;;;;;4937851;28;46243;-80
2022/05/02 08:17:58;;;;;;;;;36.00;32.33;;;;;;;;4943441;28;45530;-85
2022/05/02 08:21:02;;;;;;;;;;;;;;;;;;;;;
2022/05/02 08:30:24;;;;;;;;;35.00;31.67;;;;;;;;5078206;28;45414;-84
2022/05/02 08:36:50;;;;;;;;;40.00;33.00;;;;;;;;5047466;28;45706;-78
2022/05/02 08:39:23;;;;;;;;;40.67;33.00;;;;;;;;5044967;28;46121;-85
2022/05/02 08:45:14;;;;;;;;;32.67;30.67;;;;;;;;4919988;28;45697;-84
2022/05/02 09:00:57;;;;;;;;;41.33;34.67;;;;;;;;4775715;29;45932;-80
2022/05/02 09:04:05;;;;;;;;;;;;;;;;;;;;;
2022/05/02 09:10:14;;;;;;;;;;;;;;;;;;;;;
2022/05/02 09:13:22;;;;;;;;;33.00;32.00;;;;;;;;4935213;28;73240;-81
2022/05/02 09:16:35;;;;;;;;;;;;;;;;;;;;;
2022/05/02 09:22:41;;;;;;;;;;;;;;;;;;;;;
2022/05/02 09:25:29;;;;;;;;;36.67;29.33;;;;;;;;4930490;28;74563;-81
2022/05/02 09:28:24;;;;;;;;;37.67;32.33;;;;;;;;5013305;28;45807;-80
2022/05/02 09:31:20;;;;;;;;;36.67;30.00;;;;;;;;5074999;28;45905;-85
2022/05/02 09:34:51;;;;;;;;;35.67;29.33;;;;;;;;5056195;28;45386;-86
2022/05/02 09:37:36;;;;;;;;;43.00;34.67;;;;;;;;5004145;28;45550;-86
2022/05/02 09:40:15;;;;;;;;;39.00;32.00;;;;;;;;4968024;28;45629;-79
2022/05/02 09:43:07;;;;;;;;;43.33;33.33;;;;;;;;5027929;28;45161;-86
2022/05/02 09:52:37;;;;;;;;;40.33;33.00;;;;;;;;5062493;28;45494;-80
2022/05/02 10:05:05;;;;;;;;;;;;;;;;;;;;;
2022/05/02 10:07:54;;;;;;;;;37.00;34.00;;;;;;;;5000661;28;72412;-82
2022/05/02 10:10:42;;;;;;;;;31.33;29.33;;;;;;;;5019270;28;45407;-80
2022/05/02 10:13:15;;;;;;;;;38.00;33.33;;;;;;;;5014115;28;45685;-80
2022/05/02 10:15:58;;;;;;;;;39.33;33.00;;;;;;;;5004190;28;46362;-81
2022/05/02 10:18:43;;;;;;;;;37.00;33.67;;;;;;;;5012198;28;45682;-82
2022/05/02 10:22:04;;;;;;;;;33.00;30.33;;;;;;;;5002598;28;45503;-79
2022/05/02 10:24:29;;;;;;;;;30.33;28.33;;;;;;;;4972962;28;45644;-81
2022/05/02 10:27:26;;;;;;;;;31.33;26.00;;;;;;;;5078192;27;46357;-81
2022/05/02 10:29:51;;;;;;;;;33.67;28.67;;;;;;;;5056484;28;45750;-82
2022/05/02 10:32:56;;;;;;;;;32.67;29.33;;;;;;;;5074850;27;45526;-81
2022/05/02 10:35:32;;;;;;;;;32.00;27.67;;;;;;;;5066051;27;45551;-82
2022/05/02 10:37:59;;;;;;;;;31.00;29.00;;;;;;;;5069597;27;45610;-82
2022/05/02 10:40:56;;;;;;;;;28.33;25.67;;;;;;;;5069321;27;45461;-80
2022/05/02 10:43:26;;;;;;;;;29.33;29.00;;;;;;;;5051220;28;45484;-82
2022/05/02 10:45:54;;;;;;;;;24.67;24.00;;;;;;;;5075635;28;45917;-80
2022/05/02 10:48:41;;;;;;;;;;;;;;;;;;;;;
2022/05/02 10:51:18;;;;;;;;;34.33;30.33;;;;;;;;5076225;28;72896;-81
2022/05/02 10:53:49;;;;;;;;;31.33;30.00;;;;;;;;5055867;28;45336;-81
2022/05/02 10:56:47;;;;;;;;;24.00;23.67;;;;;;;;5075279;28;45374;-81
2022/05/02 10:59:16;;;;;;;;;27.67;26.67;;;;;;;;5045852;28;47038;-80
2022/05/02 11:02:12;;;;;;;;;38.33;33.00;;;;;;;;5052743;28;45469;-82
2022/05/02 11:04:44;;;;;;;;;35.00;29.00;;;;;;;;5075626;28;45451;-79
2022/05/02 11:07:18;;;;;;;;;26.33;24.67;;;;;;;;5057160;28;45881;-79
2022/05/02 11:09:50;;;;;;;;;25.67;25.67;;;;;;;;5072332;28;45456;-81
2022/05/02 11:12:19;;;;;;;;;31.00;26.00;;;;;;;;5064520;28;45691;-79
2022/05/02 11:21:23;;;;;;;;;23.33;22.33;;;;;;;;4980734;28;45808;-80
2022/05/02 11:24:01;;;;;;;;;28.67;26.00;;;;;;;;4981048;28;45862;-79
2022/05/02 11:27:01;;;;;;;;;;;;;;;;;;;;;
2022/05/02 11:29:45;;;;;;;;;26.33;23.00;;;;;;;;4919318;28;73722;-80
2022/05/02 11:42:21;;;;;;;;;;;;;;;;;;;;;
2022/05/02 11:48:22;;;;;;;;;27.33;22.00;;;;;;;;4842097;29;45607;-83
2022/05/02 11:53:55;;;;;;;;;26.67;26.00;;;;;;;;4834958;29;45864;-80
2022/05/02 11:56:48;;;;;;;;;25.00;22.67;;;;;;;;4845044;29;46398;-80
2022/05/02 11:59:40;;;;;;;;;23.67;22.00;;;;;;;;4861795;29;45997;-81
2022/05/02 12:06:04;;;;;;;;;23.00;22.67;;;;;;;;4815988;29;45706;-80
2022/05/02 12:08:35;;;;;;;;;28.33;22.67;;;;;;;;4817809;29;45457;-79
2022/05/02 12:11:07;;;;;;;;;24.00;23.00;;;;;;;;4820617;29;45925;-76
2022/05/02 12:13:46;;;;;;;;;29.33;24.33;;;;;;;;4970360;28;45377;-82
2022/05/02 12:16:21;;;;;;;;;21.33;20.67;;;;;;;;5031273;28;45784;-81
2022/05/02 12:18:51;;;;;;;;;24.33;22.33;;;;;;;;5033553;28;45873;-82
2022/05/02 12:21:39;;;;;;;;;26.67;24.33;;;;;;;;5034555;28;45488;-81
2022/05/02 12:24:12;;;;;;;;;26.00;25.33;;;;;;;;5032798;28;45778;-80
2022/05/02 12:26:50;;;;;;;;;27.00;23.00;;;;;;;;5033194;28;45459;-78
2022/05/02 12:29:23;;;;;;;;;25.33;23.67;;;;;;;;5033104;28;46826;-81
2022/05/02 12:32:16;;;;;;;;;19.33;18.00;;;;;;;;5029978;28;45917;-82
2022/05/02 12:34:43;;;;;;;;;22.67;20.00;;;;;;;;5028226;28;44921;-79
2022/05/02 12:37:14;;;;;;;;;20.33;20.33;;;;;;;;5033073;28;45552;-80
2022/05/02 12:39:47;;;;;;;;;21.33;21.33;;;;;;;;5033162;28;46778;-82
2022/05/02 12:42:17;;;;;;;;;24.67;22.00;;;;;;;;5034716;28;45609;-80
2022/05/02 12:44:44;;;;;;;;;27.00;25.67;;;;;;;;5070159;28;45858;-78
2022/05/02 12:47:15;;;;;;;;;24.33;23.67;;;;;;;;5075967;28;45673;-82
2022/05/02 12:52:54;;;;;;;;;27.00;21.33;;;;;;;;5081589;28;45406;-81
2022/05/02 12:55:49;;;;;;;;;22.67;22.67;;;;;;;;5056533;28;45900;-80
2022/05/02 13:01:04;;;;;;;;;25.00;23.00;;;;;;;;5069771;28;46304;-78
2022/05/02 13:03:43;;;;;;;;;21.00;18.00;;;;;;;;5072155;28;45434;-77
2022/05/02 13:06:17;;;;;;;;;27.67;23.33;;;;;;;;5075927;28;45351;-78
2022/05/02 13:09:06;;;;;;;;;23.00;20.33;;;;;;;;5076367;28;45391;-78
2022/05/02 13:11:35;;;;;;;;;25.33;20.67;;;;;;;;5073515;28;46187;-80
2022/05/02 13:14:05;;;;;;;;;25.33;23.33;;;;;;;;5070618;28;45532;-81
2022/05/02 13:16:34;;;;;;;;;24.00;19.67;;;;;;;;5054430;28;45447;-82
2022/05/02 13:19:03;;;;;;;;;24.67;24.00;;;;;;;;5069487;28;45775;-77
2022/05/02 13:21:29;;;;;;;;;25.00;20.67;;;;;;;;5071032;28;45701;-78
2022/05/02 13:24:01;;;;;;;;;25.00;22.33;;;;;;;;5054979;28;45439;-78
2022/05/02 13:26:39;;;;;;;;;19.67;19.33;;;;;;;;5072251;28;45875;-79
2022/05/02 13:29:08;;;;;;;;;27.00;24.00;;;;;;;;5071527;28;45746;-78
2022/05/02 13:31:52;;;;;;;;;23.00;22.00;;;;;;;;5075775;28;45705;-80
2022/05/02 13:34:29;;;;;;;;;25.67;22.67;;;;;;;;5074761;28;45862;-82
2022/05/02 13:37:03;;;;;;;;;23.67;22.67;;;;;;;;5066535;28;45417;-79
2022/05/02 13:39:32;;;;;;;;;27.00;22.00;;;;;;;;5049641;28;46717;-77
2022/05/02 13:42:01;;;;;;;;;23.67;21.33;;;;;;;;5070858;28;46566;-76
2022/05/02 13:44:35;;;;;;;;;22.67;20.67;;;;;;;;5059077;28;45709;-78
2022/05/02 13:47:10;;;;;;;;;22.67;21.00;;;;;;;;5070566;28;45541;-78
2022/05/02 13:49:42;;;;;;;;;26.00;23.67;;;;;;;;5066714;28;45640;-80
2022/05/02 13:52:27;;;;;;;;;27.00;24.67;;;;;;;;5077072;28;46213;-79
2022/05/02 13:55:13;;;;;;;;;19.67;17.67;;;;;;;;5045693;28;45858;-79
2022/05/02 13:57:44;;;;;;;;;21.00;20.67;;;;;;;;5061208;28;45211;-79
2022/05/02 14:03:05;;;;;;;;;22.00;20.33;;;;;;;;5075144;28;45437;-79
2022/05/02 14:06:00;;;;;;;;;20.67;20.67;;;;;;;;5071377;28;45781;-80
2022/05/02 14:08:35;;;;;;;;;23.67;20.33;;;;;;;;5071621;28;45699;-81
2022/05/02 14:11:07;;;;;;;;;18.00;18.00;;;;;;;;5055820;28;45493;-80
2022/05/02 14:13:33;;;;;;;;;21.67;19.67;;;;;;;;5055790;28;46427;-80
2022/05/02 14:16:06;;;;;;;;;23.33;21.00;;;;;;;;5064683;28;45784;-80
2022/05/02 14:18:48;;;;;;;;;22.00;20.00;;;;;;;;5039626;28;47282;-81
2022/05/02 14:21:17;;;;;;;;;20.33;18.00;;;;;;;;5053255;28;46609;-80
2022/05/02 14:23:52;;;;;;;;;21.33;20.67;;;;;;;;5056617;28;45437;-77
2022/05/02 14:26:19;;;;;;;;;19.67;18.33;;;;;;;;5055498;28;45746;-79
2022/05/02 14:28:46;;;;;;;;;21.67;19.33;;;;;;;;5053554;28;45872;-80
2022/05/02 14:31:12;;;;;;;;;21.33;20.00;;;;;;;;5036299;28;45794;-81
2022/05/02 14:33:38;;;;;;;;;18.33;17.00;;;;;;;;5035807;28;47424;-79
2022/05/02 14:36:05;;;;;;;;;19.67;19.67;;;;;;;;5048321;28;45472;-78
2022/05/02 14:38:30;;;;;;;;;20.67;20.67;;;;;;;;5050261;28;45423;-79
2022/05/02 14:40:57;;;;;;;;;20.67;20.67;;;;;;;;5036274;28;45980;-78
2022/05/02 14:43:23;;;;;;;;;18.67;18.67;;;;;;;;5028239;28;46764;-78
2022/05/02 14:45:50;;;;;;;;;19.67;19.67;;;;;;;;5047947;28;45536;-79
2022/05/02 14:48:16;;;;;;;;;20.67;18.67;;;;;;;;5031551;28;45755;-80
2022/05/02 14:50:45;;;;;;;;;21.67;19.33;;;;;;;;5052933;28;45754;-82
2022/05/02 15:00:19;;;;;;;;;21.33;20.67;;;;;;;;4979981;28;45434;-81
2022/05/02 15:03:03;;;;;;;;;;;;;;;;;;;;;
2022/05/02 15:05:43;;;;;;;;;18.33;16.67;;;;;;;;5019936;28;73593;-78
2022/05/02 15:08:31;;;;;;;;;23.33;21.33;;;;;;;;5047943;28;45378;-79
2022/05/02 15:11:00;;;;;;;;;21.00;19.33;;;;;;;;5055392;28;45781;-80
2022/05/02 15:13:31;;;;;;;;;22.67;19.67;;;;;;;;5039681;28;45686;-79
2022/05/02 15:16:03;;;;;;;;;24.33;23.00;;;;;;;;5034570;28;45576;-80
2022/05/02 15:21:57;;;;;;;;;22.67;20.00;;;;;;;;5054939;28;45272;-82
2022/05/02 15:42:54;;;;;;;;;21.67;19.67;;;;;;;;5002825;28;45926;-81
2022/05/02 15:51:56;;;;;;;;;23.00;20.00;;;;;;;;5010943;28;45517;-83
2022/05/02 15:54:33;;;;;;;;;19.00;19.00;;;;;;;;4996444;28;45786;-80
2022/05/02 15:57:15;;;;;;;;;;;;;;;;;;;;;
2022/05/02 16:03:11;;;;;;;;;18.67;16.67;;;;;;;;5053157;28;46025;-79
2022/05/02 16:05:53;;;;;;;;;19.00;18.00;;;;;;;;5036272;28;45346;-81
2022/05/02 16:15:13;;;;;;;;;;;;;;;;;;;;;
2022/05/02 16:24:06;;;;;;;;;28.00;23.33;;;;;;;;4948841;28;45493;-79
2022/05/02 16:27:06;;;;;;;;;;;;;;;;;;;;;
2022/05/02 16:35:51;;;;;;;;;25.00;21.67;;;;;;;;5055501;28;45550;-79
2022/05/02 16:41:23;;;;;;;;;23.67;21.67;;;;;;;;5050409;28;45598;-80
2022/05/02 16:47:32;;;;;;;;;;;;;;;;;;;;;
2022/05/02 16:50:12;;;;;;;;;29.33;25.67;;;;;;;;5052161;28;46150;-84
2022/05/02 16:59:27;;;;;;;;;28.33;26.67;;;;;;;;5056086;28;45941;-79
2022/05/02 17:05:00;;;;;;;;;27.33;24.67;;;;;;;;5058682;28;45517;-80
2022/05/02 17:07:36;;;;;;;;;28.33;25.00;;;;;;;;5049390;28;45909;-80
2022/05/02 17:10:35;;;;;;;;;36.33;29.67;;;;;;;;5059752;28;45533;-79
2022/05/02 17:19:51;;;;;;;;;;;;;;;;;;;;;
2022/05/02 17:32:11;;;;;;;;;;;;;;;;;;;;;
2022/05/02 17:44:10;;;;;;;;;23.00;21.33;;;;;;;;5000033;28;46010;-81
2022/05/02 17:46:37;;;;;;;;;24.67;22.00;;;;;;;;5027172;28;45318;-80
2022/05/02 17:49:07;;;;;;;;;24.00;22.00;;;;;;;;5055588;28;45558;-80
2022/05/02 17:51:34;;;;;;;;;34.67;32.33;;;;;;;;5059115;28;45501;-81
2022/05/02 17:54:22;;;;;;;;;;;;;;;;;;;;;
2022/05/02 17:56:49;;;;;;;;;24.00;20.67;;;;;;;;5031977;28;74464;-76
2022/05/02 17:59:25;;;;;;;;;18.67;16.67;;;;;;;;5051756;28;46193;-78
2022/05/02 18:02:06;;;;;;;;;21.00;19.33;;;;;;;;5036009;28;46022;-77
2022/05/02 18:04:47;;;;;;;;;22.00;19.67;;;;;;;;5056956;28;45499;-79
2022/05/02 18:07:20;;;;;;;;;32.67;29.67;;;;;;;;5027998;28;46680;-78
2022/05/02 18:09:49;;;;;;;;;22.00;21.33;;;;;;;;5030295;28;47551;-80
2022/05/02 18:12:25;;;;;;;;;24.00;21.67;;;;;;;;5056410;28;45573;-77
2022/05/02 18:15:13;;;;;;;;;26.33;22.33;;;;;;;;5045572;28;45817;-80
2022/05/02 18:17:51;;;;;;;;;28.00;22.33;;;;;;;;5033052;28;45443;-82
2022/05/02 18:20:29;;;;;;;;;24.33;21.33;;;;;;;;5047244;28;46170;-77
2022/05/02 18:22:55;;;;;;;;;25.00;20.67;;;;;;;;5047826;28;44919;-81
2022/05/02 18:25:38;;;;;;;;;22.33;20.33;;;;;;;;5055847;28;45573;-83
2022/05/02 18:28:17;;;;;;;;;24.33;20.67;;;;;;;;5048071;28;45821;-81
2022/05/02 18:30:53;;;;;;;;;22.33;21.67;;;;;;;;5033487;28;45680;-79
2022/05/02 18:33:25;;;;;;;;;28.00;23.00;;;;;;;;5029537;28;46096;-82
2022/05/02 18:35:55;;;;;;;;;29.67;28.00;;;;;;;;5032054;28;45515;-78
2022/05/02 18:38:30;;;;;;;;;20.67;20.67;;;;;;;;5028277;28;45838;-82
2022/05/02 18:41:19;;;;;;;;;24.00;20.67;;;;;;;;5035641;28;45873;-77
2022/05/02 18:43:49;;;;;;;;;19.00;18.67;;;;;;;;5048964;28;45859;-79
2022/05/02 18:54:58;;;;;;;;;22.00;18.00;;;;;;;;5054501;28;45840;-82
2022/05/02 18:57:27;;;;;;;;;29.00;23.33;;;;;;;;5046374;28;46042;-79
2022/05/02 19:00:00;;;;;;;;;19.33;18.00;;;;;;;;5047922;28;45587;-79
2022/05/02 19:02:31;;;;;;;;;20.67;20.33;;;;;;;;5048365;28;45734;-79
2022/05/02 19:04:57;;;;;;;;;18.67;17.33;;;;;;;;5052437;28;45502;-82
2022/05/02 19:07:26;;;;;;;;;22.33;19.00;;;;;;;;5048945;28;45970;-78
2022/05/02 19:09:54;;;;;;;;;21.33;21.33;;;;;;;;5047227;28;45921;-81
2022/05/02 19:12:21;;;;;;;;;19.33;19.33;;;;;;;;5044683;28;47826;-78
2022/05/02 19:14:49;;;;;;;;;17.67;16.00;;;;;;;;5045702;28;47462;-77
2022/05/02 19:17:19;;;;;;;;;25.33;21.33;;;;;;;;5050712;27;45557;-80
2022/05/02 19:19:48;;;;;;;;;15.00;13.67;;;;;;;;5045597;28;45977;-80
2022/05/02 19:22:23;;;;;;;;;24.67;21.00;;;;;;;;5049937;28;46351;-84
2022/05/02 19:25:09;;;;;;;;;21.67;19.00;;;;;;;;5059202;28;45401;-80
2022/05/02 19:27:50;;;;;;;;;20.00;20.00;;;;;;;;5058120;28;45523;-81
2022/05/02 19:30:21;;;;;;;;;21.33;16.33;;;;;;;;5064881;28;45839;-82
2022/05/02 19:33:08;;;;;;;;;18.33;18.33;;;;;;;;5045839;28;45479;-81
2022/05/02 19:41:37;;;;;;;;;23.33;20.33;;;;;;;;5061338;28;45674;-83
2022/05/02 19:44:12;;;;;;;;;23.33;20.33;;;;;;;;5053502;28;45555;-82
2022/05/02 19:46:46;;;;;;;;;23.00;19.00;;;;;;;;5064152;28;45302;-83
2022/05/02 19:49:19;;;;;;;;;24.67;23.67;;;;;;;;5044700;28;45554;-82
2022/05/02 19:51:53;;;;;;;;;25.33;20.67;;;;;;;;5041381;28;45922;-82
2022/05/02 19:54:20;;;;;;;;;25.67;25.67;;;;;;;;5056386;28;46180;-83
2022/05/02 19:56:52;;;;;;;;;30.67;25.67;;;;;;;;5058488;28;45780;-83
2022/05/02 19:59:22;;;;;;;;;32.67;28.67;;;;;;;;5052365;28;45478;-79
2022/05/02 20:01:50;;;;;;;;;24.33;23.67;;;;;;;;5033610;28;46032;-80
2022/05/02 20:04:19;;;;;;;;;31.67;29.00;;;;;;;;5033147;28;45814;-81
2022/05/02 20:06:51;;;;;;;;;39.67;30.67;;;;;;;;5033828;28;45573;-80
2022/05/02 20:09:25;;;;;;;;;38.67;34.67;;;;;;;;5037713;28;45435;-80
2022/05/02 20:11:55;;;;;;;;;33.67;32.67;;;;;;;;5053862;28;46949;-80
2022/05/02 20:14:25;;;;;;;;;32.00;30.33;;;;;;;;5056004;28;46495;-79
2022/05/02 20:16:51;;;;;;;;;36.33;32.00;;;;;;;;5037879;28;45735;-81
2022/05/02 20:19:17;;;;;;;;;40.00;33.67;;;;;;;;5062498;28;45609;-81
2022/05/02 20:21:44;;;;;;;;;41.67;34.33;;;;;;;;5039838;28;45418;-80
2022/05/02 20:24:14;;;;;;;;;41.33;34.33;;;;;;;;5039413;28;46820;-82
2022/05/02 20:26:40;;;;;;;;;41.33;33.33;;;;;;;;5058999;28;45501;-81
2022/05/02 20:29:16;;;;;;;;;50.67;40.67;;;;;;;;5053143;28;45462;-82
2022/05/02 20:37:37;;;;;;;;;41.00;31.33;;;;;;;;5063422;28;46103;-83
2022/05/02 20:40:26;;;;;;;;;42.67;36.67;;;;;;;;5040829;28;45435;-83
2022/05/02 20:43:12;;;;;;;;;46.67;39.33;;;;;;;;5045904;28;46016;-82
2022/05/02 20:45:44;;;;;;;;;40.67;35.67;;;;;;;;5037984;28;47013;-83
2022/05/02 20:48:18;;;;;;;;;50.00;35.33;;;;;;;;5059471;28;45397;-82
2022/05/02 20:50:45;;;;;;;;;39.33;34.33;;;;;;;;5035959;28;46745;-81
2022/05/02 20:53:13;;;;;;;;;42.00;36.00;;;;;;;;5055613;28;45522;-82
2022/05/02 20:55:42;;;;;;;;;38.00;34.67;;;;;;;;5061793;28;45532;-82
2022/05/02 20:58:14;;;;;;;;;51.33;41.33;;;;;;;;5063648;28;45402;-82
2022/05/02 21:00:40;;;;;;;;;43.67;35.33;;;;;;;;5064274;28;45618;-82
2022/05/02 21:03:06;;;;;;;;;45.33;39.67;;;;;;;;5063725;28;45410;-80
2022/05/02 21:05:33;;;;;;;;;42.67;37.33;;;;;;;;5067417;28;45356;-82
2022/05/02 21:07:59;;;;;;;;;58.00;45.33;;;;;;;;5065165;28;45442;-81
2022/05/02 21:10:31;;;;;;;;;44.00;38.33;;;;;;;;5057623;28;45476;-81
2022/05/02 21:13:13;;;;;;;;;40.67;35.00;;;;;;;;5064725;28;45443;-82
2022/05/02 21:15:44;;;;;;;;;51.33;40.33;;;;;;;;5049387;28;45583;-82
2022/05/02 21:18:09;;;;;;;;;45.67;40.33;;;;;;;;5044677;28;44750;-82
2022/05/02 21:20:35;;;;;;;;;50.00;39.00;;;;;;;;5063346;28;45702;-84
2022/05/02 21:23:25;;;;;;;;;44.67;38.67;;;;;;;;5043064;28;45905;-81
2022/05/02 21:25:53;;;;;;;;;50.00;38.00;;;;;;;;5060497;28;48292;-82